Terminal Aerodrome Forecast
Issued by NWS

Home | Current Version | Previous Version | Text Only | Print | Product List | Glossary On
Versions: 1 2 3 4 5 6 7 8 9 10 11 12 13 14 15
301
FTUS43 KLSX 240520
TAFUIN
TAF
KUIN 240520Z 2406/2506 15006KT P6SM BKN200
     FM241600 22012KT P6SM FEW050 SCT150
     FM242000 28007KT P6SM VCTS SCT060CB BKN100
     FM250100 35006KT P6SM BKN080=

USA.gov is the U.S. government's official web portal to all federal, state and local government web resources and services.